Terminal Aerodrome Forecast
Issued by NWS Salt Lake City, UT

Home | Current Version | Previous Version | Text Only | Print | Product List | Glossary On
Versions: 1 2 3 4 5 6 7 8 9 10 11 12 13 14 15 16 17 18 19 20 21 22 23
000
FTUS45 KSLC 311720
TAFCDC
TAF
KCDC 311720Z 3118/0118 23007KT P6SM FEW090 BKN150
     FM311900 01007KT P6SM VCSH SCT090 BKN150
     FM010300 VRB04KT P6SM FEW100 BKN150=

USA.gov is the U.S. government's official web portal to all federal, state and local government web resources and services.